createdAt,value
2022-08-07T00:11:12.724Z,99.90
2022-08-07T00:19:07.131Z,99.90
2022-08-07T00:33:40.875Z,99.90
2022-08-07T00:36:47.549Z,99.90
2022-08-07T00:39:45.139Z,99.90
2022-08-07T00:42:30.963Z,99.90
2022-08-07T00:50:19.863Z,99.90
2022-08-07T00:54:07.401Z,99.90
2022-08-07T00:56:57.131Z,99.90
2022-08-07T01:00:02.915Z,99.90
2022-08-07T01:02:59.748Z,99.90
2022-08-07T01:12:30.221Z,99.90
2022-08-07T01:15:05.553Z,99.90
2022-08-07T01:17:52.990Z,99.90
2022-08-07T01:20:58.472Z,99.90
2022-08-07T01:23:39.473Z,99.90
2022-08-07T01:29:04.452Z,99.90
2022-08-07T01:31:41.650Z,99.90
2022-08-07T01:34:30.963Z,99.90
2022-08-07T01:37:03.911Z,99.90
2022-08-07T01:39:50.525Z,99.90
2022-08-07T01:42:40.135Z,99.90
2022-08-07T01:45:22.910Z,99.90
2022-08-07T01:48:19.928Z,99.90
2022-08-07T01:52:03.473Z,99.90
2022-08-07T01:54:36.945Z,99.90
2022-08-07T01:57:24.204Z,99.90
2022-08-07T02:00:12.784Z,99.90
2022-08-07T02:03:18.175Z,99.90
2022-08-07T02:05:48.122Z,99.90
2022-08-07T02:08:31.313Z,99.90
2022-08-07T02:11:03.506Z,99.90
2022-08-07T02:13:58.011Z,99.90
2022-08-07T02:16:28.809Z,99.90
2022-08-07T02:19:05.663Z,99.90
2022-08-07T02:21:58.887Z,99.90
2022-08-07T02:24:30.210Z,99.90
2022-08-07T02:27:01.467Z,99.90
2022-08-07T02:29:54.666Z,99.90
2022-08-07T02:32:30.062Z,99.90
2022-08-07T02:35:00.988Z,99.90
2022-08-07T02:37:34.075Z,99.90
2022-08-07T02:40:31.197Z,99.90
2022-08-07T02:43:01.331Z,99.90
2022-08-07T02:45:59.001Z,99.90
2022-08-07T02:48:32.438Z,99.90
2022-08-07T02:51:14.272Z,99.90
2022-08-07T02:53:59.253Z,99.90
2022-08-07T02:56:32.624Z,99.90
2022-08-07T02:59:05.764Z,99.90
2022-08-07T03:01:40.329Z,99.90
2022-08-07T03:04:15.234Z,99.90
2022-08-07T03:06:48.291Z,99.90
2022-08-07T03:09:42.257Z,99.90
2022-08-07T03:12:21.725Z,99.90
2022-08-07T03:14:56.392Z,99.90
2022-08-07T03:17:54.093Z,99.90
2022-08-07T03:20:25.040Z,99.90
2022-08-07T03:22:57.741Z,99.90
2022-08-07T03:25:32.478Z,99.90
2022-08-07T03:28:38.004Z,99.90
2022-08-07T03:31:19.726Z,99.90
2022-08-07T03:34:18.556Z,99.90
2022-08-07T03:36:53.246Z,99.90
2022-08-07T03:39:59.820Z,99.90
2022-08-07T03:42:14.314Z,99.90
2022-08-07T03:44:47.120Z,99.90
2022-08-07T03:47:25.575Z,99.90
2022-08-07T03:50:14.628Z,99.90
2022-08-07T03:52:46.744Z,99.90
2022-08-07T03:55:16.277Z,99.90
2022-08-07T03:58:08.765Z,99.90
2022-08-07T04:00:46.193Z,99.90
2022-08-07T04:03:16.313Z,99.90
2022-08-07T04:05:46.698Z,99.90
2022-08-07T04:08:21.151Z,99.90
2022-08-07T04:10:54.634Z,99.90
2022-08-07T04:14:10.327Z,99.90
2022-08-07T04:16:37.145Z,99.90
2022-08-07T04:19:14.649Z,99.90
2022-08-07T04:22:12.129Z,99.90
2022-08-07T04:24:45.151Z,99.90
2022-08-07T04:27:25.392Z,99.90
2022-08-07T04:30:03.198Z,99.90
2022-08-07T04:32:48.694Z,99.90
2022-08-07T04:35:35.098Z,99.90
2022-08-07T04:38:13.176Z,99.90
2022-08-07T04:40:56.681Z,99.90
2022-08-07T04:44:09.947Z,99.90
2022-08-07T04:47:04.008Z,99.90
2022-08-07T04:50:04.393Z,99.90
2022-08-07T04:52:52.183Z,99.90
2022-08-07T04:58:14.586Z,99.90
2022-08-07T05:00:12.067Z,99.90
2022-08-07T05:04:00.037Z,99.90
2022-08-07T05:06:43.365Z,99.90
2022-08-07T05:09:43.213Z,99.90
2022-08-07T05:12:30.588Z,99.90
2022-08-07T05:18:37.826Z,99.90
2022-08-07T05:21:12.564Z,99.90
2022-08-07T05:23:51.054Z,99.90
2022-08-07T05:26:24.010Z,99.90
2022-08-07T05:29:04.403Z,99.90
2022-08-07T05:31:52.776Z,99.90
2022-08-07T05:34:28.335Z,99.90
2022-08-07T05:37:07.684Z,99.90
2022-08-07T05:40:13.630Z,99.90
2022-08-07T05:42:33.784Z,99.90
2022-08-07T05:45:25.702Z,99.90
2022-08-07T05:48:03.292Z,99.90
2022-08-07T05:54:31.129Z,99.90
2022-08-07T05:57:53.017Z,99.90
2022-08-07T06:00:25.688Z,99.90
2022-08-07T06:03:06.989Z,99.90
2022-08-07T06:05:36.306Z,99.90
2022-08-07T06:08:30.131Z,99.90
2022-08-07T06:11:19.070Z,99.90
2022-08-07T06:14:12.538Z,99.90
2022-08-07T06:16:41.761Z,99.90
2022-08-07T06:22:41.143Z,99.90
2022-08-07T06:25:34.710Z,99.90
2022-08-07T06:28:08.927Z,99.90
2022-08-07T06:30:46.017Z,99.90
2022-08-07T06:33:36.494Z,99.90
2022-08-07T06:36:13.949Z,99.90
2022-08-07T06:40:13.042Z,99.90
2022-08-07T06:42:04.102Z,99.90
2022-08-07T06:45:26.491Z,99.90
2022-08-07T06:48:03.322Z,99.90
2022-08-07T06:50:47.772Z,99.90
2022-08-07T06:55:28.956Z,99.90
2022-08-07T06:56:56.853Z,99.90
2022-08-07T07:00:13.246Z,99.90
2022-08-07T07:03:39.895Z,99.90
2022-08-07T07:06:11.687Z,99.90
2022-08-07T07:08:46.459Z,99.90
2022-08-07T07:12:06.814Z,99.90
2022-08-07T07:14:29.479Z,99.90
2022-08-07T07:17:04.580Z,99.90
2022-08-07T07:24:08.992Z,99.90
2022-08-07T07:26:34.513Z,99.90
2022-08-07T07:29:56.680Z,99.90
2022-08-07T07:32:17.369Z,99.90
2022-08-07T07:35:09.815Z,99.90
2022-08-07T07:37:49.980Z,99.90
2022-08-07T07:40:28.755Z,99.90
2022-08-07T07:43:27.538Z,99.90
2022-08-07T07:46:54.469Z,99.90
2022-08-07T07:50:35.391Z,99.90
2022-08-07T07:52:42.271Z,99.90
2022-08-07T07:55:45.664Z,99.90
2022-08-07T07:58:37.087Z,99.90
2022-08-07T08:02:01.928Z,99.90
2022-08-07T08:07:20.331Z,99.90
2022-08-07T08:12:58.838Z,99.90
2022-08-07T08:15:57.712Z,99.90
2022-08-07T08:18:38.277Z,99.90
2022-08-07T08:27:30.543Z,99.90
2022-08-07T08:30:17.486Z,99.90
2022-08-07T08:36:25.549Z,99.90
2022-08-07T08:39:07.205Z,99.90
2022-08-07T08:42:20.598Z,99.90
2022-08-07T08:45:13.021Z,99.90
2022-08-07T08:47:54.680Z,99.90
2022-08-07T08:50:39.237Z,99.90
2022-08-07T08:56:47.603Z,99.90
2022-08-07T08:59:42.154Z,99.90
2022-08-07T09:02:49.351Z,99.90
2022-08-07T09:05:37.090Z,99.90
2022-08-07T09:08:33.799Z,99.90
2022-08-07T09:11:14.063Z,99.90
2022-08-07T09:14:19.840Z,99.90
2022-08-07T09:20:57.921Z,98.70
2022-08-07T09:24:30.859Z,99.40
2022-08-07T09:27:38.399Z,99.90
2022-08-07T09:30:28.435Z,92.20
2022-08-07T09:33:16.605Z,95.20
2022-08-07T09:36:50.010Z,96.00
2022-08-07T09:40:05.038Z,89.10
2022-08-07T09:42:50.332Z,87.70
2022-08-07T09:47:49.764Z,92.00
2022-08-07T09:48:29.767Z,91.40
2022-08-07T09:51:26.079Z,94.10
2022-08-07T09:54:19.264Z,94.70
2022-08-07T09:57:46.659Z,94.50
2022-08-07T10:00:29.773Z,92.10
2022-08-07T10:06:49.047Z,93.60
2022-08-07T10:10:00.994Z,90.10
2022-08-07T10:12:53.743Z,92.40
2022-08-07T10:15:45.227Z,87.90
2022-08-07T10:18:32.655Z,86.60
2022-08-07T10:22:12.664Z,87.30
2022-08-07T10:24:57.415Z,80.10
2022-08-07T10:27:47.553Z,78.10
2022-08-07T10:30:26.616Z,82.10
2022-08-07T10:33:23.652Z,82.10
2022-08-07T10:36:45.475Z,79.20
2022-08-07T10:43:34.088Z,71.30
2022-08-07T10:46:10.669Z,70.00
2022-08-07T10:48:49.246Z,70.70
2022-08-07T10:51:39.568Z,72.60
2022-08-07T10:54:19.186Z,70.10
2022-08-07T10:57:22.146Z,70.20
2022-08-07T11:00:39.293Z,69.60
2022-08-07T11:03:21.255Z,67.70
2022-08-07T11:05:58.187Z,68.70
2022-08-07T11:08:38.960Z,61.90
2022-08-07T11:11:11.842Z,65.80
2022-08-07T11:14:46.452Z,65.10
2022-08-07T11:16:51.293Z,60.00
2022-08-07T11:19:31.092Z,53.30
2022-08-07T11:22:26.593Z,61.80
2022-08-07T11:25:14.829Z,55.20
2022-08-07T11:28:01.429Z,66.00
2022-08-07T11:30:41.709Z,63.50
2022-08-07T11:33:53.831Z,72.30
2022-08-07T11:36:30.597Z,73.70
2022-08-07T11:39:09.597Z,74.60
2022-08-07T11:42:01.747Z,72.00
2022-08-07T11:44:52.002Z,79.00
2022-08-07T11:47:56.533Z,76.70
2022-08-07T11:50:57.865Z,86.30
2022-08-07T11:53:57.016Z,79.60
2022-08-07T11:56:43.229Z,84.90
2022-08-07T12:00:12.184Z,86.30
2022-08-07T12:02:30.884Z,82.50
2022-08-07T12:05:15.310Z,92.20
2022-08-07T12:08:06.544Z,92.50
2022-08-07T12:11:08.400Z,94.60
2022-08-07T12:13:47.746Z,96.40
2022-08-07T12:16:30.387Z,93.30
2022-08-07T12:19:14.702Z,92.70
2022-08-07T12:22:39.046Z,89.30
2022-08-07T12:26:02.953Z,93.10
2022-08-07T12:28:17.165Z,93.80
2022-08-07T12:31:06.626Z,95.60
2022-08-07T12:33:56.233Z,96.80
2022-08-07T12:36:33.417Z,97.70
2022-08-07T12:39:38.822Z,86.30
2022-08-07T12:41:57.618Z,93.10
2022-08-07T12:44:29.681Z,94.00
2022-08-07T12:47:10.870Z,95.70
2022-08-07T12:49:51.614Z,95.90
2022-08-07T12:52:34.119Z,95.60
2022-08-07T12:55:17.489Z,94.30
2022-08-07T12:58:00.878Z,94.90
2022-08-07T13:00:50.004Z,92.90
2022-08-07T13:04:01.972Z,92.60
2022-08-07T13:07:00.250Z,91.00
2022-08-07T13:10:29.302Z,93.20
2022-08-07T13:12:42.786Z,95.10
2022-08-07T13:15:29.763Z,95.70
2022-08-07T13:18:26.161Z,96.00
2022-08-07T13:21:02.917Z,96.70
2022-08-07T13:24:03.767Z,95.80
2022-08-07T13:26:41.793Z,94.60
2022-08-07T13:29:21.768Z,95.20
2022-08-07T13:32:00.201Z,95.80
2022-08-07T13:34:51.718Z,93.50
2022-08-07T13:37:33.192Z,94.50
2022-08-07T13:40:36.155Z,94.70
2022-08-07T13:43:11.926Z,95.80
2022-08-07T13:46:10.906Z,94.60
2022-08-07T13:48:38.626Z,86.90
2022-08-07T13:51:37.597Z,93.10
2022-08-07T13:54:03.273Z,95.70
2022-08-07T13:56:40.805Z,86.30
2022-08-07T13:59:25.724Z,91.00
2022-08-07T14:02:07.712Z,91.60
2022-08-07T14:04:50.347Z,93.30
2022-08-07T14:07:26.119Z,94.10
2022-08-07T14:10:14.925Z,93.70
2022-08-07T14:12:55.708Z,95.60
2022-08-07T14:15:36.090Z,96.30
2022-08-07T14:18:23.970Z,95.60
2022-08-07T14:21:08.183Z,96.40
2022-08-07T14:23:59.956Z,97.70
2022-08-07T14:26:34.650Z,98.70
2022-08-07T14:30:05.061Z,98.70
2022-08-07T14:32:01.344Z,99.00
2022-08-07T14:34:31.958Z,90.20
2022-08-07T14:37:05.170Z,93.50
2022-08-07T14:40:17.944Z,93.90
2022-08-07T14:43:54.962Z,90.50
2022-08-07T14:45:48.920Z,93.20
2022-08-07T14:48:27.357Z,92.20
2022-08-07T14:54:09.886Z,90.30
2022-08-07T14:56:46.064Z,83.20
2022-08-07T15:00:03.003Z,83.40
2022-08-07T15:02:31.794Z,86.80
2022-08-07T15:05:03.447Z,90.40
2022-08-07T15:07:51.361Z,88.80
2022-08-07T15:10:25.086Z,90.20
2022-08-07T15:12:58.302Z,92.60
2022-08-07T15:18:35.659Z,93.40
2022-08-07T15:21:08.477Z,91.00
2022-08-07T15:25:13.547Z,92.30
2022-08-07T15:27:07.529Z,94.00
2022-08-07T15:36:01.209Z,93.80
2022-08-07T15:41:24.214Z,94.60
2022-08-07T15:44:12.482Z,94.40
2022-08-07T15:46:50.030Z,92.80
2022-08-07T15:50:04.774Z,93.70
2022-08-07T15:52:29.995Z,95.40
2022-08-07T15:55:08.582Z,96.90
2022-08-07T15:57:40.120Z,97.20
2022-08-07T16:00:33.689Z,94.00
2022-08-07T16:03:22.006Z,96.00
2022-08-07T16:06:04.079Z,97.50
2022-08-07T16:08:38.713Z,97.90
2022-08-07T16:11:26.458Z,97.20
2022-08-07T16:14:10.731Z,98.00
2022-08-07T16:16:57.264Z,95.40
2022-08-07T16:19:43.176Z,96.90
2022-08-07T16:22:55.132Z,97.40
2022-08-07T16:25:54.916Z,98.80
2022-08-07T16:29:18.787Z,99.70
2022-08-07T16:32:02.263Z,99.20
2022-08-07T16:34:40.888Z,98.50
2022-08-07T16:38:05.572Z,99.00
2022-08-07T16:41:15.873Z,99.40
2022-08-07T16:44:46.313Z,99.20
2022-08-07T16:47:56.773Z,99.80
2022-08-07T16:50:52.678Z,99.90
2022-08-07T16:54:01.445Z,99.90
2022-08-07T16:56:39.057Z,99.90
2022-08-07T16:59:17.367Z,99.90
2022-08-07T17:02:03.203Z,99.90
2022-08-07T17:04:57.495Z,99.90
2022-08-07T17:07:55.458Z,99.90
2022-08-07T17:10:34.222Z,99.90
2022-08-07T17:13:41.379Z,99.90
2022-08-07T17:16:25.003Z,99.90
2022-08-07T17:19:04.645Z,99.90
2022-08-07T17:21:50.781Z,99.90
2022-08-07T17:24:33.091Z,99.90
2022-08-07T17:27:08.548Z,99.90
2022-08-07T17:30:15.929Z,99.90
2022-08-07T17:32:57.949Z,99.90
2022-08-07T17:35:55.363Z,99.90
2022-08-07T17:38:34.150Z,99.90
2022-08-07T17:42:00.679Z,99.90
2022-08-07T17:44:05.841Z,99.90
2022-08-07T17:46:44.222Z,99.90
2022-08-07T17:49:23.841Z,99.90
2022-08-07T17:52:00.594Z,99.90
2022-08-07T17:54:53.060Z,99.90
2022-08-07T17:57:56.665Z,99.90
2022-08-07T18:00:33.136Z,99.90
2022-08-07T18:03:18.139Z,99.90
2022-08-07T18:06:02.147Z,99.90
2022-08-07T18:08:35.203Z,99.90
2022-08-07T18:12:08.022Z,99.90
2022-08-07T18:14:23.617Z,99.90
2022-08-07T18:16:58.405Z,99.90
2022-08-07T18:21:04.307Z,99.90
2022-08-07T18:22:35.024Z,99.90
2022-08-07T18:25:19.079Z,99.90
2022-08-07T18:28:34.526Z,99.90
2022-08-07T18:31:18.619Z,99.90
2022-08-07T18:34:37.599Z,99.90
2022-08-07T18:38:58.640Z,99.90
2022-08-07T18:40:42.768Z,99.90
2022-08-07T18:44:16.006Z,99.90
2022-08-07T18:47:26.752Z,99.90
2022-08-07T18:50:48.743Z,99.90
2022-08-07T18:53:40.761Z,99.90
2022-08-07T18:56:18.518Z,99.90
2022-08-07T18:59:01.578Z,99.90
2022-08-07T19:02:32.485Z,99.90
2022-08-07T19:05:09.689Z,99.90
2022-08-07T19:07:57.597Z,99.90
2022-08-07T19:10:49.628Z,99.90
2022-08-07T19:13:29.092Z,99.90
2022-08-07T19:17:00.561Z,99.90
2022-08-07T19:19:02.449Z,99.90
2022-08-07T19:22:04.688Z,99.90
2022-08-07T19:24:53.736Z,99.90
2022-08-07T19:28:57.820Z,99.90
2022-08-07T19:31:00.302Z,99.90
2022-08-07T19:33:57.965Z,99.90
2022-08-07T19:36:42.719Z,99.90
2022-08-07T19:39:56.542Z,99.90
2022-08-07T19:42:39.948Z,99.90
2022-08-07T19:46:06.204Z,99.90
2022-08-07T19:48:24.251Z,99.90
2022-08-07T19:51:51.007Z,99.90
2022-08-07T19:54:33.412Z,99.90
2022-08-07T19:58:00.225Z,99.90
2022-08-07T20:00:28.422Z,99.90
2022-08-07T20:03:03.243Z,99.90
2022-08-07T20:06:00.691Z,99.90
2022-08-07T20:08:48.876Z,99.90
2022-08-07T20:12:01.538Z,99.90
2022-08-07T20:14:54.023Z,99.90
2022-08-07T20:17:38.541Z,99.90
2022-08-07T20:20:10.639Z,99.90
2022-08-07T20:22:48.650Z,99.90
2022-08-07T20:25:20.435Z,99.90
2022-08-07T20:27:54.297Z,99.90
2022-08-07T20:30:33.785Z,99.90
2022-08-07T20:33:05.499Z,99.90
2022-08-07T20:35:54.358Z,99.90
2022-08-07T20:38:32.609Z,99.90
2022-08-07T20:41:05.520Z,99.90
2022-08-07T20:43:36.221Z,99.90
2022-08-07T20:46:28.200Z,99.90
2022-08-07T20:49:58.480Z,99.90
2022-08-07T20:51:51.053Z,99.90
2022-08-07T20:54:31.860Z,99.90
2022-08-07T20:57:04.677Z,99.90
2022-08-07T21:00:07.710Z,99.90
2022-08-07T21:02:54.071Z,99.90
2022-08-07T21:05:42.623Z,99.90
2022-08-07T21:08:16.190Z,99.90
2022-08-07T21:10:51.474Z,99.90
2022-08-07T21:13:24.693Z,99.90
2022-08-07T21:16:11.709Z,99.90
2022-08-07T21:18:46.243Z,99.90
2022-08-07T21:21:21.476Z,99.90
2022-08-07T21:24:04.113Z,99.90
2022-08-07T21:26:43.031Z,99.90
2022-08-07T21:29:18.549Z,99.90
2022-08-07T21:32:43.776Z,99.90
2022-08-07T21:34:59.928Z,99.90
2022-08-07T21:37:58.194Z,99.90
2022-08-07T21:40:36.120Z,99.90
2022-08-07T21:43:10.620Z,99.90
2022-08-07T21:46:10.863Z,99.90
2022-08-07T21:48:43.815Z,99.90
2022-08-07T21:51:32.231Z,99.90
2022-08-07T21:54:14.047Z,99.90
2022-08-07T21:57:03.479Z,99.90
2022-08-07T22:00:04.461Z,99.90
2022-08-07T22:02:42.346Z,99.90
2022-08-07T22:05:21.978Z,99.90
2022-08-07T22:08:07.062Z,99.90
2022-08-07T22:10:42.501Z,99.90
2022-08-07T22:13:16.010Z,99.90
2022-08-07T22:16:41.978Z,99.90
2022-08-07T22:18:54.376Z,99.90
2022-08-07T22:22:01.743Z,99.90
2022-08-07T22:24:22.314Z,99.90
2022-08-07T22:27:05.493Z,99.90
2022-08-07T22:29:48.365Z,99.90
2022-08-07T22:32:25.101Z,99.90
2022-08-07T22:34:55.491Z,99.90
2022-08-07T22:38:03.487Z,99.90
2022-08-07T22:40:27.997Z,99.90
2022-08-07T22:43:03.349Z,99.90
2022-08-07T22:46:40.464Z,99.90
2022-08-07T22:49:02.286Z,99.90
2022-08-07T22:52:02.774Z,99.90
2022-08-07T22:55:14.789Z,99.90
2022-08-07T22:58:05.585Z,99.90
2022-08-07T23:00:44.005Z,99.90
2022-08-07T23:03:57.961Z,99.90
2022-08-07T23:06:52.800Z,99.90
2022-08-07T23:10:04.822Z,99.90
2022-08-07T23:12:34.534Z,99.90
2022-08-07T23:15:21.946Z,99.90
2022-08-07T23:18:14.539Z,99.90
2022-08-07T23:21:16.218Z,99.90
2022-08-07T23:24:16.987Z,99.90
2022-08-07T23:26:59.345Z,99.90
2022-08-07T23:30:39.126Z,99.90
2022-08-07T23:34:34.287Z,99.90
2022-08-07T23:36:17.323Z,99.90
2022-08-07T23:39:08.728Z,99.90
2022-08-07T23:42:05.071Z,99.90
2022-08-07T23:45:03.610Z,99.90
2022-08-07T23:47:53.562Z,99.90
2022-08-07T23:50:38.531Z,99.90
2022-08-07T23:53:22.911Z,99.90
2022-08-07T23:56:20.846Z,99.90
2022-08-07T23:59:10.628Z,99.90
